Latest Coastal Weather Observations for Cocos Island

IDW60701

Issued at 6:33 pm WST Wednesday 22 February 2017 (issued every 10 minutes, with the page automatically refreshed every 10 minutes)

About coastal observations | Map of coastal stations | Coastal observations for WA | Marine services | Other Formats
Station Details ID: 200284 Name: COCOS ISLAND AIRPORT Lat: -12.19 Lon: 96.83 Height: 3.0 m
Data from the previous 72 hours. | See also: Recent months at Cocos Island
Date/Time
WST
Temp
°C
Wind Pressure Rain since
9am
mm
Weather Cloud Vis
km
Sea
Height
m
Swell
Dir  Spd
kts
Gust
kts
hPa Trend Height
m
Period
s
Dir
22/06:30pm 30.5 NW 7 9 1009.1 - 0.0 - Partly cloudy 10 - - - -
22/06:00pm 30.6 NNW 6 9 1008.9 - 0.0 - Partly cloudy 10 - - - -
22/05:30pm 30.8 NNW 7 10 1008.6 - 0.0 - - 10 - - - -
22/05:00pm 31.0 NNW 8 11 1008.6 - 0.0 - Mostly clear 10 - - - -
22/04:30pm 30.9 N 7 9 1008.9 - 0.0 - Mostly clear 10 - - - -
22/04:00pm 30.1 N 8 11 1009.2 - 0.0 - Mostly clear 10 - - - -
22/03:30pm 29.5 N 7 9 1009.5 - 0.0 - Partly cloudy 10 - - - -
22/03:00pm 30.2 N 10 12 1009.8 - 0.0 - Partly cloudy 10 - - - -
22/02:30pm 30.2 N 10 13 1010.0 - 0.0 - Partly cloudy 10 - - - -
22/02:00pm 30.6 N 9 12 1010.2 - 0.0 - Mostly clear 10 - - - -
22/01:30pm 30.5 N 11 16 1010.7 - 0.0 - Mostly clear 10 - - - -
22/01:00pm 30.5 N 9 13 1011.0 - 0.0 - Mostly clear 10 - - - -
22/12:30pm 30.0 N 9 12 1011.1 - 0.0 - Mostly clear 10 - - - -
22/12:00pm 30.2 N 9 14 1011.5 - 0.0 - Mostly clear 10 - - - -
22/11:30am 30.1 N 10 13 1011.4 - 0.0 - Partly cloudy 10 - - - -
22/11:00am 29.5 N 11 14 1011.4 - 0.0 - Mostly clear 10 - - - -
22/10:30am 29.2 NNE 11 14 1011.4 - 0.0 - Partly cloudy 10 - - - -
22/10:00am 29.2 NNE 9 10 1011.2 - 0.0 - Partly cloudy 10 - - - -
22/09:30am 28.7 NNW 7 10 1011.1 - 0.0 - Partly cloudy 10 - - - -
22/09:00am 28.3 N 6 8 1010.6 - 0.0 - Partly cloudy 10 - - - -
22/08:30am 27.9 NNW 5 8 1010.1 - 0.0 - Partly cloudy 10 - - - -
22/08:00am 26.4 SSE 5 6 1009.7 - 0.0 - Mostly clear 10 - - - -
22/07:30am 27.0 E 5 7 1009.7 - 0.0 - Partly cloudy 10 - - - -
22/07:00am 26.9 ENE 11 17 1009.3 - 0.0 - Partly cloudy 10 - - - -
22/06:30am 28.1 N 7 9 1009.1 - 0.0 - Partly cloudy 10 - - - -
22/06:00am 28.2 NNE 8 11 1008.8 - 0.0 - Partly cloudy 10 - - - -
22/05:30am 28.1 NNE 7 9 1008.7 - 0.0 - Partly cloudy 10 - - - -
22/05:00am 28.0 NE 8 11 1008.4 - 0.0 - Cloudy 10 - - - -
22/04:30am 27.9 NNE 7 10 1008.5 - 0.0 - Partly cloudy 10 - - - -
22/04:00am 27.8 NE 7 10 1008.6 - 0.0 - Partly cloudy 10 - - - -
22/03:30am 28.0 NNE 8 10 1008.8 - 0.0 - - 10 - - - -
22/03:00am 27.9 N 5 7 1009.6 - 0.0 - - 10 - - - -
22/02:30am 27.9 N 5 7 1009.9 - 0.0 - - 10 - - - -
22/02:00am 27.8 NNE 6 8 1010.0 - 0.0 - - 10 - - - -
22/01:30am 27.7 NE 4 6 1010.3 - 0.0 - - 10 - - - -
22/01:00am 27.9 NE 5 8 1010.4 - 0.0 - - 10 - - - -
22/12:30am 28.0 NE 6 7 1010.4 - 0.0 - - 10 - - - -
22/12:00am 27.9 NNE 6 8 1010.4 - 0.0 - - 10 - - - -
 
Date/Time
WST
Temp
°C
Wind Pressure Rain since
9am
mm
Weather Cloud Vis
km
Sea
Height
m
Swell
Dir  Spd
kts
Gust
kts
hPa Trend Height
m
Period
s
Dir
21/11:30pm 27.9 NNE 5 8 1010.2 - 0.0 - - 10 - - - -
21/11:00pm 27.3 N 3 6 1010.0 - 0.0 - Mostly clear 10 - - - -
21/10:30pm 26.7 NNW 3 4 1009.9 - 0.0 - Partly cloudy 10 - - - -
21/10:00pm 27.6 ENE 1 5 1009.8 - 0.0 - Partly cloudy 10 - - - -
21/09:30pm 28.1 ESE 4 6 1009.6 - 0.0 - Partly cloudy 10 - - - -
21/09:00pm 28.1 SE 5 7 1009.2 - 0.0 - Partly cloudy 10 - - - -
21/08:30pm 28.2 WNW 3 5 1008.8 - 0.0 - Partly cloudy 10 - - - -
21/08:00pm 28.2 SE 2 5 1008.3 - 0.0 - Cloudy 10 - - - -
21/07:30pm 29.3 SE 3 6 1008.1 - 0.0 - Cloudy 10 - - - -
21/07:00pm 29.9 ESE 3 5 1007.8 - 0.0 - Partly cloudy 10 - - - -
21/06:41pm 29.7 ESE 3 6 1007.6 - 0.0 - Partly cloudy 10 - - - -
21/06:30pm 30.0 SE 4 6 1007.5 - 0.0 - Partly cloudy 6 - - - -
21/06:26pm 29.9 SE 5 6 1007.5 - 0.0 - Partly cloudy 6 - - - -
21/06:00pm 29.8 SE 6 7 1007.3 - 0.0 - Partly cloudy 10 - - - -
21/05:30pm 29.9 S 5 8 1007.6 - 0.0 - Partly cloudy 10 - - - -
21/05:00pm 29.7 SSW 6 8 1007.5 - 0.0 - Cloudy 10 - - - -
21/04:30pm 30.3 S 4 7 1007.8 - 0.0 - Partly cloudy 10 - - - -
21/04:00pm 29.7 S 6 7 1008.0 - 0.0 - Partly cloudy 10 - - - -
21/03:30pm 30.1 SE 7 9 1008.2 - 0.0 - Mostly clear 10 - - - -
21/03:00pm 29.7 SE 5 8 1008.4 - 0.0 - Mostly clear 10 - - - -
21/02:30pm 30.8 SE 6 11 1008.6 - 0.0 - Mostly clear 10 - - - -
21/02:00pm 30.2 SE 7 11 1009.0 - 0.0 - Mostly clear 10 - - - -
21/01:30pm 29.9 SE 7 9 1009.5 - 0.0 - Mostly clear 10 - - - -
21/01:00pm 30.0 SE 9 11 1009.8 - 0.0 - Mostly clear 10 - - - -
21/12:30pm 29.9 SE 9 13 1010.1 - 0.0 - Mostly clear 10 - - - -
21/12:00pm 29.7 SE 9 12 1010.1 - 0.0 - Mostly clear 10 - - - -
21/11:30am 29.7 SE 8 11 1010.3 - 0.0 - Partly cloudy 10 - - - -
21/11:00am 29.4 SE 8 11 1010.4 - 0.6 - Mostly clear 10 - - - -
21/10:30am 29.6 SE 8 10 1010.6 - 0.6 - Partly cloudy 10 - - - -
21/10:00am 29.5 ESE 7 9 1010.4 - 0.6 - Mostly clear 10 - - - -
21/09:30am 28.6 SE 9 10 1010.0 - 0.6 - Mostly clear 10 - - - -
21/09:00am 28.3 SE 7 10 1009.7 - 0.6 - Mostly clear 10 - - - -
21/08:30am 27.6 SE 7 9 1009.3 - 0.6 - Mostly clear 10 - - - -
21/08:00am 27.0 SSE 8 10 1008.9 - 0.6 - - 10 - - - -
21/07:30am 27.0 SSE 9 12 1008.7 - 0.6 - Partly cloudy 10 - - - -
21/07:10am 26.6 SE 9 11 1008.4 - 0.6 - Partly cloudy 10 - - - -
21/07:00am 26.7 SE 8 10 1008.3 - 0.6 - Partly cloudy 6 - - - -
21/06:51am 26.8 SSE 8 11 1008.3 - 0.6 - Partly cloudy 4 - - - -
21/06:30am 26.9 SSE 9 12 1008.3 - 0.6 - Partly cloudy 10 - - - -
21/06:00am 26.8 SSE 6 8 1008.1 - 0.6 - Partly cloudy 10 - - - -
21/05:30am 26.9 SSE 7 10 1008.2 - 0.6 - Partly cloudy 10 - - - -
21/05:00am 26.9 SSE 8 10 1008.1 - 0.6 - Partly cloudy 10 - - - -
21/04:30am 26.8 SSE 7 9 1008.2 - 0.6 - Partly cloudy 10 - - - -
21/04:00am 26.7 SSE 8 11 1008.1 - 0.6 - - 10 - - - -
21/03:34am 27.0 SE 9 12 1008.3 - 0.6 - Partly cloudy 10 - - - -
21/03:30am 26.9 SE 9 12 1008.3 - 0.6 - Partly cloudy 10 - - - -
21/03:07am 27.0 SSE 9 11 1008.5 - 0.6 - Partly cloudy 10 - - - -
21/03:00am 27.0 SSE 9 12 1008.4 - 0.6 - Partly cloudy 10 - - - -
21/02:30am 27.0 SSE 9 13 1008.8 - 0.6 - Partly cloudy 10 - - - -
21/02:00am 27.3 SSE 9 13 1009.2 - 0.6 - Partly cloudy 10 - - - -
21/01:30am 27.4 SSE 10 13 1009.6 - 0.6 - Partly cloudy 10 - - - -
21/01:00am 27.6 SSE 9 11 1010.1 - 0.6 - Partly cloudy 10 - - - -
21/12:30am 27.4 SSE 9 13 1010.3 - 0.6 - Partly cloudy 10 - - - -
21/12:00am 27.5 SSE 9 12 1010.4 - 0.6 - Partly cloudy 10 - - - -
 
Date/Time
WST
Temp
°C
Wind Pressure Rain since
9am
mm
Weather Cloud Vis
km
Sea
Height
m
Swell
Dir  Spd
kts
Gust
kts
hPa Trend Height
m
Period
s
Dir
20/11:30pm 27.6 SSE 9 12 1010.1 - 0.6 - Partly cloudy 10 - - - -
20/11:00pm 27.4 SSE 10 13 1009.7 - 0.6 - Mostly clear 10 - - - -
20/10:52pm 27.5 SSE 11 14 1009.8 - 0.6 - Partly cloudy 10 - - - -
20/10:30pm 27.4 SSE 9 13 1009.7 - 0.6 - - 4 - - - -
20/10:29pm 27.4 SSE 9 13 1009.7 - 0.6 - - 4 - - - -
20/10:00pm 27.5 SSE 10 13 1009.6 - 0.6 - - 10 - - - -
20/09:30pm 27.5 SSE 10 13 1009.4 - 0.6 - - 10 - - - -
20/09:00pm 27.4 SSE 9 11 1008.9 - 0.6 - - 10 - - - -
20/08:30pm 27.6 SSE 10 14 1008.7 - 0.6 - Partly cloudy 10 - - - -
20/08:00pm 27.7 SSE 10 14 1008.4 - 0.6 - - 10 - - - -
20/07:30pm 28.1 SSE 10 14 1008.3 - 0.6 - Partly cloudy 10 - - - -
20/07:00pm 28.6 SSE 10 14 1008.1 - 0.6 - Partly cloudy 10 - - - -
20/06:30pm 29.4 SSE 11 15 1007.8 - 0.6 - Partly cloudy 10 - - - -
20/06:00pm 29.9 SSE 12 15 1007.6 - 0.6 - Partly cloudy 10 - - - -
20/05:30pm 29.6 SSE 12 16 1007.6 - 0.6 - Partly cloudy 10 - - - -
20/05:00pm 30.0 S 14 17 1007.6 - 0.6 - Cloudy 10 - - - -
20/04:30pm 29.5 SSE 12 16 1007.8 - 0.6 - Partly cloudy 10 - - - -
20/04:00pm 30.2 SSE 12 15 1007.9 - 0.6 - Partly cloudy 10 - - - -
20/03:30pm 30.5 S 13 16 1008.0 - 0.6 - Mostly clear 10 - - - -
20/03:00pm 29.9 SSE 11 17 1008.2 - 0.6 - Partly cloudy 10 - - - -
20/02:30pm 30.3 SE 11 15 1008.5 - 0.6 - Mostly clear 10 - - - -
20/02:00pm 30.9 SSE 13 18 1008.6 - 0.6 - Mostly clear 10 - - - -
20/01:30pm 30.5 SSE 14 18 1009.1 - 0.6 - Mostly clear 10 - - - -
20/01:00pm 30.4 SSE 13 18 1009.5 - 0.4 - Mostly clear 10 - - - -
20/12:30pm 28.5 SE 11 14 1009.7 - 0.4 - Partly cloudy 10 - - - -
20/12:00pm 29.3 SE 12 16 1009.9 - 0.2 Showers Partly cloudy 10 - - - -
20/11:30am 30.5 SE 13 17 1010.0 - 0.2 - Mostly clear 10 - - - -
20/11:00am 29.6 SE 13 18 1010.0 - 0.6 - Mostly cloudy 10 - - - -
20/10:30am 29.4 SSE 13 18 1010.0 - 0.6 - Mostly clear 10 - - - -
20/10:00am 29.3 SSE 13 17 1009.8 - 0.6 - Mostly clear 10 - - - -
20/09:30am 28.6 SSE 13 17 1009.9 - 0.6 - Mostly clear 10 - - - -
20/09:00am 28.5 SSE 14 19 1009.6 - 0.6 - Partly cloudy 10 - - - -
20/08:30am 27.7 S 15 18 1009.4 - 0.6 - Partly cloudy 10 - - - -
20/08:00am 27.2 SSE 13 16 1009.0 - 0.6 - Cloudy 10 - - - -
20/07:30am 27.0 SSE 13 17 1009.0 - 0.6 - Partly cloudy 10 - - - -
20/07:00am 26.8 SSE 11 16 1008.7 - 0.6 - Partly cloudy 10 - - - -
20/06:30am 27.2 SSE 12 15 1008.5 - 0.6 - Partly cloudy 10 - - - -
20/06:22am 27.2 SSE 12 15 1008.5 - 0.6 - Partly cloudy 10 - - - -
20/06:00am 27.1 SSE 12 15 1008.5 - 0.6 - Partly cloudy 5 - - - -
20/05:54am 27.0 S 12 15 1008.5 - 0.6 - Partly cloudy 5 - - - -
20/05:30am 26.8 SSE 10 13 1008.5 - 0.6 - Partly cloudy 10 - - - -
20/05:00am 27.0 SSE 11 15 1008.5 - 0.6 - Cloudy 10 - - - -
20/04:30am 27.1 SSE 10 14 1008.8 - 0.6 - Partly cloudy 10 - - - -
20/04:00am 27.1 SSE 10 13 1009.1 - 0.6 - Partly cloudy 10 - - - -
20/03:30am 26.8 SSE 11 14 1009.3 - 0.6 - Partly cloudy 10 - - - -
20/03:00am 26.9 SSE 10 14 1009.7 - 0.6 - Partly cloudy 10 - - - -
20/02:49am 26.7 SSE 7 12 1009.8 - 0.6 - Partly cloudy 10 - - - -
20/02:36am 26.3 SSE 4 6 1010.0 - 0.6 - Partly cloudy 10 - - - -
20/02:30am 26.2 S 4 6 1010.1 - 0.6 - Partly cloudy 10 - - - -
20/02:00am 25.6 S 8 11 1010.4 - 0.6 - Cloudy 10 - - - -
20/01:30am 25.9 S 9 10 1010.8 - 0.6 - Partly cloudy 10 - - - -
20/01:00am 26.2 SSE 10 14 1011.1 - 0.6 - Partly cloudy 10 - - - -
20/12:30am 26.7 SSE 8 11 1011.2 - 0.6 - Partly cloudy 10 - - - -
20/12:00am 26.5 SSE 8 10 1011.2 - 0.6 - Partly cloudy 10 - - - -
 
Date/Time
WST
Temp
°C
Wind Pressure Rain since
9am
mm
Weather Cloud Vis
km
Sea
Height
m
Swell
Dir  Spd
kts
Gust
kts
hPa Trend Height
m
Period
s
Dir
19/11:30pm 26.4 SSE 10 13 1011.2 - 0.6 - Cloudy 10 - - - -
19/11:00pm 26.2 SSE 10 12 1011.0 - 0.6 - Cloudy 10 - - - -
19/10:39pm 26.4 SSE 8 10 1011.1 - 0.6 - Partly cloudy 10 - - - -
19/10:30pm 26.2 SSE 9 13 1011.1 - 0.6 - Partly cloudy 10 - - - -
19/10:14pm 26.0 SSW 6 7 1011.1 - 0.6 - Partly cloudy 10 - - - -
19/10:03pm 25.7 SSW 5 7 1011.0 - 0.6 - Partly cloudy 5 - - - -
19/10:00pm 25.8 SSW 5 7 1011.0 - 0.6 - Partly cloudy 4 - - - -
19/09:55pm 25.8 S 5 7 1011.0 - 0.6 - Partly cloudy 4 - - - -
19/09:33pm 25.4 S 7 10 1010.8 - 0.6 - Partly cloudy 10 - - - -
19/09:30pm 25.4 S 8 10 1010.7 - 0.6 - Partly cloudy 10 - - - -
19/09:12pm 25.5 S 11 14 1010.5 - 0.2 - Partly cloudy 6 - - - -
19/09:00pm 26.4 S 6 8 1010.4 - 0.0 - Partly cloudy 10 - - - -
19/08:30pm 26.4 S 6 8 1010.1 - 0.0 - Partly cloudy 10 - - - -

Other Formats:

Comma delimited format used in spreadsheet applications
http://www.bom.gov.au/fwo/IDW60701/IDW60701.96996.axf

JavaScript Object Notation format (JSON) in row-major order
http://www.bom.gov.au/fwo/IDW60701/IDW60701.96996.json